createdAt,value
2023-07-01T00:03:19.691Z,1.77
2023-07-01T00:08:21.114Z,1.15
2023-07-01T00:13:22.543Z,1.38
2023-07-01T00:18:24.302Z,1.20
2023-07-01T00:23:25.841Z,1.42
2023-07-01T00:28:27.494Z,1.02
2023-07-01T00:33:28.966Z,1.20
2023-07-01T00:38:30.378Z,0.80
2023-07-01T00:43:31.836Z,1.42
2023-07-01T00:48:33.269Z,1.23
2023-07-01T00:53:34.709Z,1.20
2023-07-01T00:58:36.407Z,0.85
2023-07-01T01:03:50.220Z,0.88
2023-07-01T01:08:56.640Z,1.02
2023-07-01T01:13:59.429Z,1.10
2023-07-01T01:19:00.900Z,1.10
2023-07-01T01:24:04.907Z,0.93
2023-07-01T01:29:07.387Z,1.20
2023-07-01T01:34:08.905Z,1.00
2023-07-01T01:39:10.366Z,1.02
2023-07-01T01:44:14.844Z,1.08
2023-07-01T01:49:16.268Z,0.68
2023-07-01T01:54:17.701Z,1.25
2023-07-01T01:59:19.120Z,0.95
2023-07-01T02:04:20.726Z,0.75
2023-07-01T02:09:22.915Z,0.93
2023-07-01T02:14:24.361Z,0.70
2023-07-01T02:19:25.813Z,1.00
2023-07-01T02:24:27.244Z,1.02
2023-07-01T02:29:28.740Z,0.80
2023-07-01T02:34:31.131Z,0.70
2023-07-01T02:39:32.537Z,0.88
2023-07-01T02:44:34.005Z,0.80
2023-07-01T02:49:35.438Z,0.85
2023-07-01T02:54:40.029Z,0.70
2023-07-01T02:59:41.464Z,0.63
2023-07-01T03:04:42.961Z,0.70
2023-07-01T03:09:44.438Z,0.70
2023-07-01T03:14:45.874Z,0.90
2023-07-01T03:19:47.314Z,1.00
2023-07-01T03:24:48.755Z,1.95
2023-07-01T03:29:50.459Z,0.80
2023-07-01T03:34:52.583Z,0.52
2023-07-01T03:39:54.008Z,0.70
2023-07-01T03:44:55.428Z,0.80
2023-07-01T03:49:56.857Z,0.80
2023-07-01T03:54:58.586Z,0.80
2023-07-01T04:00:00.479Z,0.60
2023-07-01T04:05:10.944Z,0.70
2023-07-01T04:10:12.388Z,0.60
2023-07-01T04:15:13.837Z,0.73
2023-07-01T04:20:15.321Z,0.98
2023-07-01T04:25:16.736Z,0.90
2023-07-01T04:30:18.194Z,0.80
2023-07-01T04:35:19.643Z,0.88
2023-07-01T04:40:21.065Z,0.88
2023-07-01T04:45:22.532Z,0.93
2023-07-01T04:50:24.142Z,1.20
2023-07-01T04:55:25.569Z,1.30
2023-07-01T05:00:27.016Z,1.30
2023-07-01T05:05:28.587Z,1.30
2023-07-01T05:10:30.260Z,1.17
2023-07-01T05:15:31.679Z,1.30
2023-07-01T05:20:33.111Z,1.25
2023-07-01T05:25:34.539Z,1.20
2023-07-01T05:30:36.270Z,1.02
2023-07-01T05:35:37.813Z,1.20
2023-07-01T05:40:39.687Z,0.90
2023-07-01T05:45:41.205Z,0.98
2023-07-01T05:50:42.647Z,0.80
2023-07-01T05:55:44.234Z,0.80
2023-07-01T06:00:46.555Z,0.80
2023-07-01T06:05:48.209Z,0.80
2023-07-01T06:10:49.665Z,0.88
2023-07-01T06:15:51.140Z,0.80
2023-07-01T06:20:52.579Z,1.10
2023-07-01T06:25:54.004Z,0.70
2023-07-01T06:30:55.640Z,0.60
2023-07-01T06:35:57.103Z,0.57
2023-07-01T06:40:58.521Z,0.60
2023-07-01T06:46:00.703Z,1.20
2023-07-01T06:51:04.492Z,0.60
2023-07-01T06:56:05.929Z,0.45
2023-07-01T07:01:07.548Z,0.60
2023-07-01T07:06:09.054Z,0.47
2023-07-01T07:11:10.511Z,0.40
2023-07-01T07:16:11.954Z,0.50
2023-07-01T07:21:13.423Z,0.50
2023-07-01T07:26:15.058Z,0.52
2023-07-01T07:31:16.556Z,0.50
2023-07-01T07:36:18.092Z,0.40
2023-07-01T07:41:19.554Z,0.32
2023-07-01T07:46:21.029Z,0.40
2023-07-01T07:51:22.917Z,0.57
2023-07-01T07:56:24.390Z,0.52
2023-07-01T08:01:25.854Z,0.17
2023-07-01T08:06:27.316Z,0.30
2023-07-01T08:11:28.876Z,0.30
2023-07-01T08:16:33.014Z,0.30
2023-07-01T08:21:36.906Z,0.30
2023-07-01T08:26:38.369Z,0.90
2023-07-01T08:31:41.408Z,0.28
2023-07-01T08:36:42.913Z,0.30
2023-07-01T08:41:49.741Z,0.35
2023-07-01T08:46:53.473Z,0.30
2023-07-01T08:52:06.944Z,0.32
2023-07-01T08:57:11.418Z,0.22
2023-07-01T09:02:12.934Z,0.30
2023-07-01T09:07:14.409Z,0.30
2023-07-01T09:12:16.691Z,0.20
2023-07-01T09:17:30.312Z,0.30
2023-07-01T09:22:32.155Z,0.30
2023-07-01T09:27:40.707Z,0.30
2023-07-01T09:32:42.248Z,0.38
2023-07-01T09:37:43.743Z,0.30
2023-07-01T09:42:55.629Z,0.22
2023-07-01T09:47:57.181Z,0.52
2023-07-01T09:52:58.671Z,0.30
2023-07-01T09:58:00.211Z,0.32
2023-07-01T10:03:01.943Z,0.30
2023-07-01T10:08:03.527Z,0.30
2023-07-01T10:13:04.971Z,0.40
2023-07-01T10:18:23.128Z,0.40
2023-07-01T10:23:24.627Z,0.50
2023-07-01T10:28:27.711Z,0.60
2023-07-01T10:33:29.196Z,0.40
2023-07-01T10:38:31.452Z,0.32
2023-07-01T10:43:37.812Z,0.40
2023-07-01T10:49:05.867Z,0.40
2023-07-01T10:54:08.453Z,0.43
2023-07-01T10:59:28.567Z,0.68
2023-07-01T11:04:52.342Z,0.50
2023-07-01T11:09:57.054Z,0.40
2023-07-01T11:15:00.629Z,0.97
2023-07-01T11:20:02.115Z,0.60
2023-07-01T11:25:04.844Z,0.43
2023-07-01T11:30:06.829Z,0.52
2023-07-01T11:35:09.285Z,0.60
2023-07-01T11:40:11.047Z,0.50
2023-07-01T11:45:12.841Z,0.43
2023-07-01T11:50:14.270Z,0.43
2023-07-01T11:55:34.230Z,0.65
2023-07-01T12:00:39.209Z,0.63
2023-07-01T12:05:45.034Z,0.60
2023-07-01T12:10:46.742Z,0.52
2023-07-01T12:15:56.032Z,0.60
2023-07-01T12:20:57.568Z,0.60
2023-07-01T12:25:58.988Z,2.45
2023-07-01T12:31:00.588Z,0.93
2023-07-01T12:36:02.378Z,0.98
2023-07-01T12:41:03.865Z,0.77
2023-07-01T12:46:05.335Z,0.57
2023-07-01T12:51:06.796Z,0.60
2023-07-01T12:56:08.274Z,1.02
2023-07-01T13:01:09.735Z,0.85
2023-07-01T13:06:28.524Z,1.00
2023-07-01T13:11:33.176Z,1.10
2023-07-01T13:16:36.161Z,0.83
2023-07-01T13:21:45.287Z,0.93
2023-07-01T13:26:47.383Z,0.82
2023-07-01T13:31:49.299Z,0.80
2023-07-01T13:36:52.924Z,0.95
2023-07-01T13:41:54.664Z,1.13
2023-07-01T13:46:56.826Z,0.60
2023-07-01T13:51:58.434Z,2.33
2023-07-01T13:57:00.880Z,0.95
2023-07-01T14:02:04.205Z,0.77
2023-07-01T14:07:06.200Z,0.93
2023-07-01T14:12:08.260Z,0.88
2023-07-01T14:17:13.433Z,1.13
2023-07-01T14:22:14.975Z,1.25
2023-07-01T14:27:28.901Z,1.17
2023-07-01T14:32:30.431Z,0.80
2023-07-01T14:37:32.479Z,1.27
2023-07-01T14:42:35.085Z,1.02
2023-07-01T14:47:36.536Z,0.90
2023-07-01T14:52:38.080Z,1.00
2023-07-01T14:57:39.511Z,1.13
2023-07-01T15:07:42.333Z,0.70
2023-07-01T15:12:43.753Z,0.90
2023-07-01T15:17:45.224Z,1.30
2023-07-01T15:22:46.686Z,1.50
2023-07-01T15:27:48.103Z,0.82
2023-07-01T15:32:49.560Z,1.20
2023-07-01T15:37:51.092Z,1.33
2023-07-01T15:42:52.530Z,1.10
2023-07-01T15:47:54.070Z,1.35
2023-07-01T15:52:55.542Z,1.27
2023-07-01T15:57:56.972Z,1.02
2023-07-01T16:02:58.476Z,1.10
2023-07-01T16:08:02.046Z,1.00
2023-07-01T16:13:07.238Z,0.73
2023-07-01T16:18:46.755Z,0.80
2023-07-01T16:23:53.347Z,0.80
2023-07-01T16:28:55.420Z,0.70
2023-07-01T16:33:57.145Z,0.80
2023-07-01T16:39:01.472Z,0.70
2023-07-01T16:44:03.479Z,0.85
2023-07-01T16:49:08.723Z,0.90
2023-07-01T16:54:12.126Z,0.70
2023-07-01T16:59:37.178Z,0.73
2023-07-01T17:04:38.706Z,0.70
2023-07-01T17:09:47.290Z,0.50
2023-07-01T17:14:51.829Z,0.85
2023-07-01T17:19:53.320Z,1.02
2023-07-01T17:24:54.975Z,0.60
2023-07-01T17:29:56.495Z,0.70
2023-07-01T17:35:14.198Z,1.02
2023-07-01T17:40:16.521Z,0.95
2023-07-01T17:45:18.615Z,1.27
2023-07-01T17:50:22.468Z,0.98
2023-07-01T17:55:24.102Z,1.15
2023-07-01T18:00:25.933Z,1.00
2023-07-01T18:05:27.467Z,0.95
2023-07-01T18:10:28.954Z,0.82
2023-07-01T18:15:30.457Z,0.85
2023-07-01T18:20:38.721Z,1.23
2023-07-01T18:25:53.300Z,0.63
2023-07-01T18:30:54.780Z,0.60
2023-07-01T18:35:56.263Z,0.93
2023-07-01T18:40:57.685Z,1.00
2023-07-01T18:45:59.109Z,0.85
2023-07-01T18:51:01.511Z,0.60
2023-07-01T18:56:03.322Z,0.70
2023-07-01T19:01:04.963Z,0.68
2023-07-01T19:06:06.383Z,0.40
2023-07-01T19:11:07.910Z,0.55
2023-07-01T19:16:09.415Z,0.50
2023-07-01T19:21:10.963Z,0.30
2023-07-01T19:26:12.801Z,0.50
2023-07-01T19:31:14.283Z,0.35
2023-07-01T19:36:15.724Z,0.32
2023-07-01T19:41:17.673Z,0.30
2023-07-01T19:46:20.265Z,0.30
2023-07-01T19:51:21.698Z,0.20
2023-07-01T19:56:23.145Z,0.28
2023-07-01T20:01:24.571Z,0.45
2023-07-01T20:06:26.012Z,0.38
2023-07-01T20:11:27.466Z,0.20
2023-07-01T20:16:29.147Z,0.73
2023-07-01T20:21:30.595Z,0.30
2023-07-01T20:26:32.019Z,0.30
2023-07-01T20:31:33.459Z,0.10
2023-07-01T20:36:36.142Z,0.10
2023-07-01T20:41:37.578Z,0.30
2023-07-01T20:46:44.883Z,0.38
2023-07-01T20:51:46.501Z,0.30
2023-07-01T20:56:47.912Z,0.50
2023-07-01T21:01:49.404Z,0.52
2023-07-01T21:06:50.907Z,0.28
2023-07-01T21:11:52.360Z,0.52
2023-07-01T21:16:53.804Z,0.43
2023-07-01T21:21:55.244Z,0.30
2023-07-01T21:26:56.678Z,0.30
2023-07-01T21:31:59.403Z,0.30
2023-07-01T21:37:00.818Z,0.45
2023-07-01T21:42:02.238Z,0.35
2023-07-01T21:47:03.766Z,0.40
2023-07-01T21:52:05.947Z,0.40
2023-07-01T21:57:07.441Z,0.40
2023-07-01T22:02:08.897Z,0.55
2023-07-01T22:07:10.338Z,0.30
2023-07-01T22:12:11.859Z,0.47
2023-07-01T22:17:13.350Z,0.63
2023-07-01T22:22:14.785Z,0.70
2023-07-01T22:27:16.207Z,0.30
2023-07-01T22:32:18.369Z,0.40
2023-07-01T22:37:19.822Z,0.50
2023-07-01T22:42:22.274Z,0.40
2023-07-01T22:47:23.740Z,0.68
2023-07-01T22:52:25.246Z,0.40
2023-07-01T22:57:26.730Z,0.52
2023-07-01T23:02:28.243Z,0.40
2023-07-01T23:07:29.823Z,0.30
2023-07-01T23:12:32.710Z,0.40
2023-07-01T23:17:34.213Z,0.50
2023-07-01T23:22:39.021Z,0.50
2023-07-01T23:27:43.713Z,0.40
2023-07-01T23:32:53.929Z,0.40
2023-07-01T23:37:57.922Z,1.65
2023-07-01T23:42:59.380Z,0.43
2023-07-01T23:48:00.953Z,0.55
2023-07-01T23:53:02.383Z,0.25
2023-07-01T23:58:03.862Z,0.20
